sensor_id;sensor_type;location;lat;lon;timestamp;pressure;altitude;pressure_sealevel;temperature;humidity
41686;BME280;27370;42.764;23.432;2023-01-25T00:00:39;96698.25;;;0.88;100.00
41686;BME280;27370;42.764;23.432;2023-01-25T00:03:05;96710.84;;;0.62;100.00
41686;BME280;27370;42.764;23.432;2023-01-25T00:05:30;96717.75;;;0.63;100.00
41686;BME280;27370;42.764;23.432;2023-01-25T00:07:56;96720.09;;;0.65;100.00
41686;BME280;27370;42.764;23.432;2023-01-25T00:10:22;96708.63;;;0.81;100.00
41686;BME280;27370;42.764;23.432;2023-01-25T00:12:47;96700.38;;;0.48;100.00
41686;BME280;27370;42.764;23.432;2023-01-25T00:15:13;96708.03;;;0.76;100.00
41686;BME280;27370;42.764;23.432;2023-01-25T00:17:39;96708.47;;;0.95;100.00
41686;BME280;27370;42.764;23.432;2023-01-25T00:20:05;96712.34;;;1.15;100.00
41686;BME280;27370;42.764;23.432;2023-01-25T00:22:30;96702.28;;;1.12;100.00
41686;BME280;27370;42.764;23.432;2023-01-25T00:24:57;96700.00;;;0.93;100.00
41686;BME280;27370;42.764;23.432;2023-01-25T00:27:23;96708.63;;;0.90;100.00
41686;BME280;27370;42.764;23.432;2023-01-25T00:29:48;96691.84;;;0.98;100.00
41686;BME280;27370;42.764;23.432;2023-01-25T00:34:47;96705.63;;;1.00;100.00
41686;BME280;27370;42.764;23.432;2023-01-25T00:37:35;96710.63;;;1.10;100.00
41686;BME280;27370;42.764;23.432;2023-01-25T00:40:01;96716.16;;;0.97;100.00
41686;BME280;27370;42.764;23.432;2023-01-25T00:42:27;96709.25;;;0.96;100.00
41686;BME280;27370;42.764;23.432;2023-01-25T00:44:52;96716.00;;;0.84;100.00
41686;BME280;27370;42.764;23.432;2023-01-25T00:47:18;96705.81;;;0.78;100.00
41686;BME280;27370;42.764;23.432;2023-01-25T00:49:45;96702.34;;;0.95;100.00
41686;BME280;27370;42.764;23.432;2023-01-25T00:52:11;96713.91;;;1.07;100.00
41686;BME280;27370;42.764;23.432;2023-01-25T00:54:37;96720.56;;;0.75;100.00
41686;BME280;27370;42.764;23.432;2023-01-25T00:57:03;96715.41;;;0.70;100.00
41686;BME280;27370;42.764;23.432;2023-01-25T00:59:29;96716.31;;;0.66;100.00
41686;BME280;27370;42.764;23.432;2023-01-25T01:01:54;96712.56;;;0.67;100.00
41686;BME280;27370;42.764;23.432;2023-01-25T01:04:21;96712.25;;;0.42;100.00
41686;BME280;27370;42.764;23.432;2023-01-25T01:06:50;96721.63;;;0.22;100.00
41686;BME280;27370;42.764;23.432;2023-01-25T01:09:19;96724.72;;;-0.02;100.00
41686;BME280;27370;42.764;23.432;2023-01-25T01:11:45;96692.16;;;-0.07;100.00
41686;BME280;27370;42.764;23.432;2023-01-25T01:14:12;96713.19;;;0.03;100.00
41686;BME280;27370;42.764;23.432;2023-01-25T01:16:37;96711.63;;;0.19;100.00
41686;BME280;27370;42.764;23.432;2023-01-25T01:19:03;96716.78;;;0.16;100.00
41686;BME280;27370;42.764;23.432;2023-01-25T01:21:29;96696.25;;;0.08;100.00
41686;BME280;27370;42.764;23.432;2023-01-25T01:23:56;96701.91;;;0.41;100.00
41686;BME280;27370;42.764;23.432;2023-01-25T01:26:22;96695.66;;;0.37;100.00
41686;BME280;27370;42.764;23.432;2023-01-25T01:28:48;96696.28;;;0.25;100.00
41686;BME280;27370;42.764;23.432;2023-01-25T01:31:17;96702.53;;;0.20;100.00
41686;BME280;27370;42.764;23.432;2023-01-25T01:33:50;96696.41;;;0.20;100.00
41686;BME280;27370;42.764;23.432;2023-01-25T01:36:17;96692.66;;;0.12;100.00
41686;BME280;27370;42.764;23.432;2023-01-25T01:38:43;96703.16;;;0.17;100.00
41686;BME280;27370;42.764;23.432;2023-01-25T01:41:09;96685.00;;;0.37;100.00
41686;BME280;27370;42.764;23.432;2023-01-25T01:43:35;96684.22;;;0.53;100.00
41686;BME280;27370;42.764;23.432;2023-01-25T01:46:03;96686.09;;;0.36;100.00
41686;BME280;27370;42.764;23.432;2023-01-25T01:51:43;96680.63;;;0.32;100.00
41686;BME280;27370;42.764;23.432;2023-01-25T01:54:30;96684.06;;;0.50;100.00
41686;BME280;27370;42.764;23.432;2023-01-25T01:57:00;96687.03;;;0.48;100.00
41686;BME280;27370;42.764;23.432;2023-01-25T01:59:33;96682.47;;;0.40;100.00
41686;BME280;27370;42.764;23.432;2023-01-25T02:02:01;96683.59;;;0.48;100.00
41686;BME280;27370;42.764;23.432;2023-01-25T02:04:28;96690.63;;;0.44;100.00
41686;BME280;27370;42.764;23.432;2023-01-25T02:07:10;96682.81;;;0.47;100.00
41686;BME280;27370;42.764;23.432;2023-01-25T02:09:39;96675.59;;;0.56;100.00
41686;BME280;27370;42.764;23.432;2023-01-25T02:12:06;96685.75;;;0.63;100.00
41686;BME280;27370;42.764;23.432;2023-01-25T02:14:32;96688.91;;;0.56;100.00
41686;BME280;27370;42.764;23.432;2023-01-25T02:16:59;96685.00;;;0.54;100.00
41686;BME280;27370;42.764;23.432;2023-01-25T02:22:20;96683.41;;;0.61;100.00
41686;BME280;27370;42.764;23.432;2023-01-25T02:25:03;96686.69;;;0.76;100.00
41686;BME280;27370;42.764;23.432;2023-01-25T02:27:33;96689.19;;;0.81;100.00
41686;BME280;27370;42.764;23.432;2023-01-25T02:30:02;96671.00;;;0.83;100.00
41686;BME280;27370;42.764;23.432;2023-01-25T02:32:27;96674.75;;;0.82;100.00
41686;BME280;27370;42.764;23.432;2023-01-25T02:34:53;96674.00;;;0.64;100.00
41686;BME280;27370;42.764;23.432;2023-01-25T02:37:18;96689.69;;;0.57;100.00
41686;BME280;27370;42.764;23.432;2023-01-25T02:39:44;96673.38;;;0.58;100.00
41686;BME280;27370;42.764;23.432;2023-01-25T02:42:09;96684.38;;;0.48;100.00
41686;BME280;27370;42.764;23.432;2023-01-25T02:44:37;96681.84;;;0.69;100.00
41686;BME280;27370;42.764;23.432;2023-01-25T02:47:03;96678.41;;;0.60;100.00
41686;BME280;27370;42.764;23.432;2023-01-25T02:49:29;96671.81;;;0.40;100.00
41686;BME280;27370;42.764;23.432;2023-01-25T02:51:55;96676.38;;;0.48;100.00
41686;BME280;27370;42.764;23.432;2023-01-25T02:54:23;96671.81;;;0.75;100.00
41686;BME280;27370;42.764;23.432;2023-01-25T02:56:50;96663.97;;;0.70;100.00
41686;BME280;27370;42.764;23.432;2023-01-25T02:59:16;96665.53;;;0.71;100.00
41686;BME280;27370;42.764;23.432;2023-01-25T03:01:47;96667.41;;;0.61;100.00
41686;BME280;27370;42.764;23.432;2023-01-25T03:04:13;96663.50;;;0.68;100.00
41686;BME280;27370;42.764;23.432;2023-01-25T03:06:40;96666.78;;;0.73;100.00
41686;BME280;27370;42.764;23.432;2023-01-25T03:09:08;96662.38;;;0.77;100.00
41686;BME280;27370;42.764;23.432;2023-01-25T03:11:36;96661.78;;;0.72;100.00
41686;BME280;27370;42.764;23.432;2023-01-25T03:14:02;96675.88;;;0.72;100.00
41686;BME280;27370;42.764;23.432;2023-01-25T03:16:29;96662.69;;;0.67;100.00
41686;BME280;27370;42.764;23.432;2023-01-25T03:18:55;96671.34;;;0.64;100.00
41686;BME280;27370;42.764;23.432;2023-01-25T03:21:23;96673.84;;;0.60;100.00
41686;BME280;27370;42.764;23.432;2023-01-25T03:23:55;96681.69;;;0.74;100.00
41686;BME280;27370;42.764;23.432;2023-01-25T03:26:23;96677.28;;;0.78;100.00
41686;BME280;27370;42.764;23.432;2023-01-25T03:29:07;96670.38;;;0.77;100.00
41686;BME280;27370;42.764;23.432;2023-01-25T03:31:36;96676.97;;;0.80;100.00
41686;BME280;27370;42.764;23.432;2023-01-25T03:34:02;96670.22;;;0.82;100.00
41686;BME280;27370;42.764;23.432;2023-01-25T03:36:32;96682.44;;;0.83;100.00
41686;BME280;27370;42.764;23.432;2023-01-25T03:38:58;96680.72;;;0.79;100.00
41686;BME280;27370;42.764;23.432;2023-01-25T03:41:24;96672.28;;;0.68;100.00
41686;BME280;27370;42.764;23.432;2023-01-25T03:43:49;96680.88;;;0.82;100.00
41686;BME280;27370;42.764;23.432;2023-01-25T03:46:16;96678.66;;;0.93;100.00
41686;BME280;27370;42.764;23.432;2023-01-25T03:48:42;96670.97;;;1.00;100.00
41686;BME280;27370;42.764;23.432;2023-01-25T03:51:08;96669.44;;;0.82;100.00
41686;BME280;27370;42.764;23.432;2023-01-25T03:53:34;96674.28;;;0.88;100.00
41686;BME280;27370;42.764;23.432;2023-01-25T03:56:09;96668.16;;;0.88;100.00
41686;BME280;27370;42.764;23.432;2023-01-25T03:58:37;96664.25;;;0.94;100.00
41686;BME280;27370;42.764;23.432;2023-01-25T04:01:05;96664.72;;;0.79;100.00
41686;BME280;27370;42.764;23.432;2023-01-25T04:03:32;96671.63;;;0.80;100.00
41686;BME280;27370;42.764;23.432;2023-01-25T04:05:58;96650.47;;;0.66;100.00
41686;BME280;27370;42.764;23.432;2023-01-25T04:08:24;96655.47;;;0.85;100.00
41686;BME280;27370;42.764;23.432;2023-01-25T04:11:02;96652.50;;;0.78;100.00
41686;BME280;27370;42.764;23.432;2023-01-25T04:13:28;96663.78;;;0.83;100.00
41686;BME280;27370;42.764;23.432;2023-01-25T04:15:54;96658.44;;;0.83;100.00
41686;BME280;27370;42.764;23.432;2023-01-25T04:18:40;96642.03;;;0.73;100.00
41686;BME280;27370;42.764;23.432;2023-01-25T04:21:05;96662.09;;;0.70;100.00
41686;BME280;27370;42.764;23.432;2023-01-25T04:23:31;96660.03;;;0.76;100.00
41686;BME280;27370;42.764;23.432;2023-01-25T04:26:05;96654.22;;;0.82;100.00
41686;BME280;27370;42.764;23.432;2023-01-25T04:28:32;96655.78;;;0.83;100.00
41686;BME280;27370;42.764;23.432;2023-01-25T04:30:58;96655.47;;;0.94;100.00
41686;BME280;27370;42.764;23.432;2023-01-25T04:33:31;96660.00;;;0.93;100.00
41686;BME280;27370;42.764;23.432;2023-01-25T04:35:57;96649.19;;;0.81;100.00
41686;BME280;27370;42.764;23.432;2023-01-25T04:38:23;96644.00;;;0.93;100.00
41686;BME280;27370;42.764;23.432;2023-01-25T04:40:50;96655.47;;;0.94;100.00
41686;BME280;27370;42.764;23.432;2023-01-25T04:43:17;96662.22;;;0.82;100.00
41686;BME280;27370;42.764;23.432;2023-01-25T04:45:44;96653.16;;;0.75;100.00
41686;BME280;27370;42.764;23.432;2023-01-25T04:48:18;96649.09;;;0.69;100.00
41686;BME280;27370;42.764;23.432;2023-01-25T04:50:55;96651.44;;;0.70;100.00
41686;BME280;27370;42.764;23.432;2023-01-25T04:53:22;96655.19;;;0.60;100.00
41686;BME280;27370;42.764;23.432;2023-01-25T04:55:47;96642.81;;;0.65;100.00
41686;BME280;27370;42.764;23.432;2023-01-25T04:58:14;96660.34;;;0.66;100.00
41686;BME280;27370;42.764;23.432;2023-01-25T05:00:40;96659.28;;;0.58;100.00
41686;BME280;27370;42.764;23.432;2023-01-25T05:03:06;96653.19;;;0.40;100.00
41686;BME280;27370;42.764;23.432;2023-01-25T05:05:32;96656.31;;;0.42;100.00
41686;BME280;27370;42.764;23.432;2023-01-25T05:07:59;96656.31;;;0.34;100.00
41686;BME280;27370;42.764;23.432;2023-01-25T05:10:26;96645.81;;;0.20;100.00
41686;BME280;27370;42.764;23.432;2023-01-25T05:13:14;96650.38;;;0.28;100.00
41686;BME280;27370;42.764;23.432;2023-01-25T05:15:40;96646.63;;;0.29;100.00
41686;BME280;27370;42.764;23.432;2023-01-25T05:18:06;96644.09;;;0.33;100.00
41686;BME280;27370;42.764;23.432;2023-01-25T05:20:33;96656.78;;;0.36;100.00
41686;BME280;27370;42.764;23.432;2023-01-25T05:22:58;96665.09;;;0.34;100.00
41686;BME280;27370;42.764;23.432;2023-01-25T05:25:24;96645.34;;;0.35;100.00
41686;BME280;27370;42.764;23.432;2023-01-25T05:28:09;96660.69;;;0.38;100.00
41686;BME280;27370;42.764;23.432;2023-01-25T05:30:57;96656.78;;;0.36;100.00
41686;BME280;27370;42.764;23.432;2023-01-25T05:33:24;96650.66;;;0.44;100.00
41686;BME280;27370;42.764;23.432;2023-01-25T05:35:50;96658.84;;;0.47;100.00
41686;BME280;27370;42.764;23.432;2023-01-25T05:38:16;96642.53;;;0.40;100.00
41686;BME280;27370;42.764;23.432;2023-01-25T05:40:41;96641.41;;;0.41;100.00
41686;BME280;27370;42.764;23.432;2023-01-25T05:43:07;96644.69;;;0.64;100.00
41686;BME280;27370;42.764;23.432;2023-01-25T05:45:32;96650.31;;;0.80;100.00
41686;BME280;27370;42.764;23.432;2023-01-25T05:47:59;96659.53;;;0.91;100.00
41686;BME280;27370;42.764;23.432;2023-01-25T05:50:25;96651.88;;;0.81;100.00
41686;BME280;27370;42.764;23.432;2023-01-25T05:52:58;96656.91;;;0.65;100.00
41686;BME280;27370;42.764;23.432;2023-01-25T05:55:24;96666.16;;;0.68;100.00
41686;BME280;27370;42.764;23.432;2023-01-25T05:57:54;96658.00;;;0.64;100.00
41686;BME280;27370;42.764;23.432;2023-01-25T06:00:20;96667.56;;;0.65;100.00
41686;BME280;27370;42.764;23.432;2023-01-25T06:02:46;96664.75;;;0.70;100.00
41686;BME280;27370;42.764;23.432;2023-01-25T06:05:15;96666.31;;;0.80;100.00
41686;BME280;27370;42.764;23.432;2023-01-25T06:07:41;96673.38;;;0.76;100.00
41686;BME280;27370;42.764;23.432;2023-01-25T06:10:08;96654.38;;;0.77;100.00
41686;BME280;27370;42.764;23.432;2023-01-25T06:12:33;96666.63;;;0.78;100.00
41686;BME280;27370;42.764;23.432;2023-01-25T06:15:00;96650.78;;;0.73;100.00
41686;BME280;27370;42.764;23.432;2023-01-25T06:17:25;96660.53;;;0.69;100.00
41686;BME280;27370;42.764;23.432;2023-01-25T06:20:10;96665.16;;;0.89;100.00
41686;BME280;27370;42.764;23.432;2023-01-25T06:22:36;96660.47;;;0.95;100.00
41686;BME280;27370;42.764;23.432;2023-01-25T06:25:02;96662.31;;;1.03;100.00
41686;BME280;27370;42.764;23.432;2023-01-25T06:27:27;96664.53;;;1.01;100.00
41686;BME280;27370;42.764;23.432;2023-01-25T06:29:53;96658.72;;;0.90;100.00
41686;BME280;27370;42.764;23.432;2023-01-25T06:32:18;96649.94;;;0.99;100.00
41686;BME280;27370;42.764;23.432;2023-01-25T06:34:44;96656.34;;;1.06;100.00
41686;BME280;27370;42.764;23.432;2023-01-25T06:37:16;96649.81;;;0.86;100.00
41686;BME280;27370;42.764;23.432;2023-01-25T06:39:42;96669.06;;;1.01;100.00
41686;BME280;27370;42.764;23.432;2023-01-25T06:42:07;96667.06;;;0.98;100.00
41686;BME280;27370;42.764;23.432;2023-01-25T06:44:33;96665.78;;;1.04;100.00
41686;BME280;27370;42.764;23.432;2023-01-25T06:46:59;96659.19;;;1.01;100.00
41686;BME280;27370;42.764;23.432;2023-01-25T06:49:24;96665.34;;;0.93;100.00
41686;BME280;27370;42.764;23.432;2023-01-25T06:51:50;96652.63;;;0.99;100.00
41686;BME280;27370;42.764;23.432;2023-01-25T06:54:15;96648.81;;;1.08;100.00
41686;BME280;27370;42.764;23.432;2023-01-25T06:56:40;96648.81;;;1.08;100.00
41686;BME280;27370;42.764;23.432;2023-01-25T06:59:06;96668.56;;;1.07;100.00
41686;BME280;27370;42.764;23.432;2023-01-25T07:01:31;96673.13;;;1.15;100.00
41686;BME280;27370;42.764;23.432;2023-01-25T07:03:58;96653.22;;;1.04;100.00
41686;BME280;27370;42.764;23.432;2023-01-25T07:06:24;96677.19;;;1.13;100.00
41686;BME280;27370;42.764;23.432;2023-01-25T07:08:50;96674.69;;;1.16;100.00
41686;BME280;27370;42.764;23.432;2023-01-25T07:11:17;96669.31;;;1.25;100.00
41686;BME280;27370;42.764;23.432;2023-01-25T07:13:44;96664.16;;;1.20;100.00
41686;BME280;27370;42.764;23.432;2023-01-25T07:16:15;96662.56;;;1.28;100.00
41686;BME280;27370;42.764;23.432;2023-01-25T07:18:41;96661.25;;;1.34;100.00
41686;BME280;27370;42.764;23.432;2023-01-25T07:21:09;96657.22;;;1.28;100.00
41686;BME280;27370;42.764;23.432;2023-01-25T07:23:35;96667.53;;;1.38;100.00
41686;BME280;27370;42.764;23.432;2023-01-25T07:26:02;96671.13;;;1.42;100.00
41686;BME280;27370;42.764;23.432;2023-01-25T07:28:30;96666.06;;;1.49;100.00
41686;BME280;27370;42.764;23.432;2023-01-25T07:30:56;96678.78;;;1.52;100.00
41686;BME280;27370;42.764;23.432;2023-01-25T07:33:21;96668.94;;;1.35;100.00
41686;BME280;27370;42.764;23.432;2023-01-25T07:35:47;96674.13;;;1.40;100.00
41686;BME280;27370;42.764;23.432;2023-01-25T07:38:15;96684.53;;;1.25;100.00
41686;BME280;27370;42.764;23.432;2023-01-25T07:40:41;96682.78;;;1.29;100.00
41686;BME280;27370;42.764;23.432;2023-01-25T07:43:07;96681.22;;;1.28;100.00
41686;BME280;27370;42.764;23.432;2023-01-25T07:45:35;96681.81;;;1.33;100.00
41686;BME280;27370;42.764;23.432;2023-01-25T07:48:07;96681.41;;;1.22;100.00
41686;BME280;27370;42.764;23.432;2023-01-25T07:50:34;96683.75;;;1.24;100.00
41686;BME280;27370;42.764;23.432;2023-01-25T07:52:59;96682.91;;;1.41;100.00
41686;BME280;27370;42.764;23.432;2023-01-25T07:55:25;96674.47;;;1.30;100.00
41686;BME280;27370;42.764;23.432;2023-01-25T07:57:53;96687.78;;;1.39;100.00
41686;BME280;27370;42.764;23.432;2023-01-25T08:00:19;96685.41;;;1.46;100.00
41686;BME280;27370;42.764;23.432;2023-01-25T08:02:49;96694.22;;;1.38;100.00
41686;BME280;27370;42.764;23.432;2023-01-25T08:05:14;96688.72;;;1.43;100.00
41686;BME280;27370;42.764;23.432;2023-01-25T08:07:40;96691.97;;;1.87;100.00
41686;BME280;27370;42.764;23.432;2023-01-25T08:10:06;96680.91;;;1.67;100.00
41686;BME280;27370;42.764;23.432;2023-01-25T08:12:32;96676.25;;;1.56;100.00
41686;BME280;27370;42.764;23.432;2023-01-25T08:14:59;96679.09;;;1.80;100.00
41686;BME280;27370;42.764;23.432;2023-01-25T08:17:25;96680.84;;;1.76;100.00
41686;BME280;27370;42.764;23.432;2023-01-25T08:19:59;96684.28;;;1.85;100.00
41686;BME280;27370;42.764;23.432;2023-01-25T08:22:26;96674.97;;;2.12;100.00
41686;BME280;27370;42.764;23.432;2023-01-25T08:24:53;96672.19;;;1.79;100.00
41686;BME280;27370;42.764;23.432;2023-01-25T08:27:19;96671.06;;;1.59;100.00
41686;BME280;27370;42.764;23.432;2023-01-25T08:29:45;96674.25;;;1.44;100.00
41686;BME280;27370;42.764;23.432;2023-01-25T08:32:11;96671.38;;;1.87;100.00
41686;BME280;27370;42.764;23.432;2023-01-25T08:34:36;96680.50;;;1.86;100.00
41686;BME280;27370;42.764;23.432;2023-01-25T08:37:04;96679.88;;;1.80;100.00
41686;BME280;27370;42.764;23.432;2023-01-25T08:39:29;96680.06;;;1.75;100.00
41686;BME280;27370;42.764;23.432;2023-01-25T08:41:55;96686.25;;;1.67;100.00
41686;BME280;27370;42.764;23.432;2023-01-25T08:44:21;96675.25;;;1.69;100.00
41686;BME280;27370;42.764;23.432;2023-01-25T08:46:48;96686.78;;;2.11;100.00
41686;BME280;27370;42.764;23.432;2023-01-25T08:49:14;96689.19;;;2.25;100.00
41686;BME280;27370;42.764;23.432;2023-01-25T08:51:40;96689.13;;;2.33;100.00
41686;BME280;27370;42.764;23.432;2023-01-25T08:54:11;96693.94;;;2.19;100.00
41686;BME280;27370;42.764;23.432;2023-01-25T08:56:38;96686.66;;;2.07;100.00
41686;BME280;27370;42.764;23.432;2023-01-25T08:59:04;96670.63;;;2.28;100.00
41686;BME280;27370;42.764;23.432;2023-01-25T09:01:30;96677.22;;;2.31;100.00
41686;BME280;27370;42.764;23.432;2023-01-25T09:03:55;96682.78;;;1.96;100.00
41686;BME280;27370;42.764;23.432;2023-01-25T09:06:21;96683.84;;;1.74;100.00
41686;BME280;27370;42.764;23.432;2023-01-25T09:08:47;96684.00;;;1.99;100.00
41686;BME280;27370;42.764;23.432;2023-01-25T09:11:18;96681.44;;;2.32;100.00
41686;BME280;27370;42.764;23.432;2023-01-25T09:13:43;96666.63;;;2.13;100.00
41686;BME280;27370;42.764;23.432;2023-01-25T09:16:13;96671.78;;;2.19;100.00
41686;BME280;27370;42.764;23.432;2023-01-25T09:18:40;96666.50;;;2.10;100.00
41686;BME280;27370;42.764;23.432;2023-01-25T09:21:12;96669.84;;;2.07;100.00
41686;BME280;27370;42.764;23.432;2023-01-25T09:23:38;96665.63;;;2.27;100.00
41686;BME280;27370;42.764;23.432;2023-01-25T09:26:04;96663.91;;;2.22;100.00
41686;BME280;27370;42.764;23.432;2023-01-25T09:28:31;96644.28;;;2.18;100.00
41686;BME280;27370;42.764;23.432;2023-01-25T09:31:04;96660.84;;;2.11;100.00
41686;BME280;27370;42.764;23.432;2023-01-25T09:33:49;96652.63;;;2.37;100.00
41686;BME280;27370;42.764;23.432;2023-01-25T09:36:15;96644.06;;;2.44;100.00
41686;BME280;27370;42.764;23.432;2023-01-25T09:38:41;96646.22;;;2.51;100.00
41686;BME280;27370;42.764;23.432;2023-01-25T09:47:06;96635.03;;;2.36;100.00
41686;BME280;27370;42.764;23.432;2023-01-25T09:55:27;96621.41;;;2.50;100.00
41686;BME280;27370;42.764;23.432;2023-01-25T09:57:54;96607.72;;;2.31;100.00
41686;BME280;27370;42.764;23.432;2023-01-25T10:00:25;96611.69;;;2.25;100.00
41686;BME280;27370;42.764;23.432;2023-01-25T10:03:13;96610.63;;;2.71;100.00
41686;BME280;27370;42.764;23.432;2023-01-25T10:05:45;96606.44;;;2.82;100.00
41686;BME280;27370;42.764;23.432;2023-01-25T10:11:26;96602.97;;;2.82;100.00
41686;BME280;27370;42.764;23.432;2023-01-25T10:13:44;96595.19;;;2.89;100.00
41686;BME280;27370;42.764;23.432;2023-01-25T10:16:35;96593.16;;;2.73;100.00
41686;BME280;27370;42.764;23.432;2023-01-25T10:22:00;96587.88;;;3.22;100.00
41686;BME280;27370;42.764;23.432;2023-01-25T10:29:49;96563.00;;;3.22;100.00
41686;BME280;27370;42.764;23.432;2023-01-25T10:32:29;96555.84;;;3.14;100.00
41686;BME280;27370;42.764;23.432;2023-01-25T10:35:11;96558.09;;;3.36;100.00
41686;BME280;27370;42.764;23.432;2023-01-25T10:37:39;96545.50;;;3.00;100.00
41686;BME280;27370;42.764;23.432;2023-01-25T10:40:18;96539.59;;;3.06;100.00
41686;BME280;27370;42.764;23.432;2023-01-25T10:43:09;96554.28;;;3.49;100.00
41686;BME280;27370;42.764;23.432;2023-01-25T10:45:36;96541.78;;;3.53;100.00
41686;BME280;27370;42.764;23.432;2023-01-25T10:48:06;96544.69;;;3.48;100.00
41686;BME280;27370;42.764;23.432;2023-01-25T10:59:12;96537.13;;;3.26;100.00
41686;BME280;27370;42.764;23.432;2023-01-25T11:01:39;96537.69;;;2.83;100.00
41686;BME280;27370;42.764;23.432;2023-01-25T11:06:48;96529.97;;;2.57;100.00
41686;BME280;27370;42.764;23.432;2023-01-25T11:14:29;96521.06;;;2.89;100.00
41686;BME280;27370;42.764;23.432;2023-01-25T11:16:57;96513.94;;;2.93;100.00
41686;BME280;27370;42.764;23.432;2023-01-25T11:19:36;96513.72;;;2.86;100.00
41686;BME280;27370;42.764;23.432;2023-01-25T11:22:25;96512.59;;;2.63;100.00
41686;BME280;27370;42.764;23.432;2023-01-25T11:24:50;96502.09;;;2.58;100.00
41686;BME280;27370;42.764;23.432;2023-01-25T11:27:26;96502.78;;;2.91;100.00
41686;BME280;27370;42.764;23.432;2023-01-25T11:32:30;96516.75;;;2.97;100.00
41686;BME280;27370;42.764;23.432;2023-01-25T11:34:56;96505.69;;;3.11;100.00
41686;BME280;27370;42.764;23.432;2023-01-25T11:40:21;96502.56;;;3.21;100.00
41686;BME280;27370;42.764;23.432;2023-01-25T11:43:04;96493.88;;;3.12;100.00
41686;BME280;27370;42.764;23.432;2023-01-25T11:45:52;96484.75;;;2.88;100.00
41686;BME280;27370;42.764;23.432;2023-01-25T11:48:44;96485.75;;;2.84;100.00
41686;BME280;27370;42.764;23.432;2023-01-25T11:59:17;96464.19;;;3.17;100.00
41686;BME280;27370;42.764;23.432;2023-01-25T12:07:09;96455.97;;;3.10;100.00
41686;BME280;27370;42.764;23.432;2023-01-25T12:15:23;96456.16;;;3.29;100.00
41686;BME280;27370;42.764;23.432;2023-01-25T12:18:14;96451.22;;;3.43;100.00
41686;BME280;27370;42.764;23.432;2023-01-25T12:26:27;96440.81;;;3.01;100.00
41686;BME280;27370;42.764;23.432;2023-01-25T12:28:58;96439.13;;;3.09;100.00
41686;BME280;27370;42.764;23.432;2023-01-25T12:32:00;96422.06;;;3.14;100.00
41686;BME280;27370;42.764;23.432;2023-01-25T12:34:37;96426.88;;;3.20;100.00
41686;BME280;27370;42.764;23.432;2023-01-25T12:37:17;96425.66;;;3.05;100.00
41686;BME280;27370;42.764;23.432;2023-01-25T12:39:55;96420.06;;;3.11;100.00
41686;BME280;27370;42.764;23.432;2023-01-25T12:42:30;96427.84;;;3.16;100.00
41686;BME280;27370;42.764;23.432;2023-01-25T12:50:21;96415.63;;;2.90;100.00
41686;BME280;27370;42.764;23.432;2023-01-25T12:52:58;96411.97;;;2.95;100.00
41686;BME280;27370;42.764;23.432;2023-01-25T12:55:26;96419.22;;;2.58;100.00
41686;BME280;27370;42.764;23.432;2023-01-25T12:57:59;96419.88;;;2.67;100.00
41686;BME280;27370;42.764;23.432;2023-01-25T13:00:41;96407.53;;;2.50;100.00
41686;BME280;27370;42.764;23.432;2023-01-25T13:03:17;96403.63;;;2.47;100.00
41686;BME280;27370;42.764;23.432;2023-01-25T13:05:55;96409.88;;;2.27;100.00
41686;BME280;27370;42.764;23.432;2023-01-25T13:11:33;96406.09;;;2.28;100.00
41686;BME280;27370;42.764;23.432;2023-01-25T13:21:54;96387.38;;;2.28;100.00
41686;BME280;27370;42.764;23.432;2023-01-25T13:24:25;96398.25;;;2.11;100.00
41686;BME280;27370;42.764;23.432;2023-01-25T13:31:57;96395.72;;;2.27;100.00
41686;BME280;27370;42.764;23.432;2023-01-25T13:37:01;96384.47;;;2.33;100.00
41686;BME280;27370;42.764;23.432;2023-01-25T13:42:04;96390.91;;;2.08;100.00
41686;BME280;27370;42.764;23.432;2023-01-25T13:44:43;96409.09;;;2.27;100.00
41686;BME280;27370;42.764;23.432;2023-01-25T13:47:11;96405.56;;;1.90;100.00
41686;BME280;27370;42.764;23.432;2023-01-25T13:50:01;96402.56;;;2.03;100.00
41686;BME280;27370;42.764;23.432;2023-01-25T13:52:28;96397.56;;;1.90;100.00
41686;BME280;27370;42.764;23.432;2023-01-25T13:54:57;96395.25;;;1.67;100.00
41686;BME280;27370;42.764;23.432;2023-01-25T13:57:26;96406.28;;;2.11;100.00
41686;BME280;27370;42.764;23.432;2023-01-25T14:02:25;96402.34;;;1.84;100.00
41686;BME280;27370;42.764;23.432;2023-01-25T14:04:51;96410.00;;;1.86;100.00
41686;BME280;27370;42.764;23.432;2023-01-25T14:07:27;96413.56;;;1.90;100.00
41686;BME280;27370;42.764;23.432;2023-01-25T14:09:55;96422.53;;;2.06;100.00
41686;BME280;27370;42.764;23.432;2023-01-25T14:12:38;96411.94;;;2.09;100.00
41686;BME280;27370;42.764;23.432;2023-01-25T14:15:23;96424.19;;;1.44;100.00
41686;BME280;27370;42.764;23.432;2023-01-25T14:20:28;96416.97;;;1.78;100.00
41686;BME280;27370;42.764;23.432;2023-01-25T14:22:53;96413.63;;;1.69;100.00
41686;BME280;27370;42.764;23.432;2023-01-25T14:25:20;96418.19;;;1.80;100.00
41686;BME280;27370;42.764;23.432;2023-01-25T14:30:24;96408.94;;;1.66;100.00
41686;BME280;27370;42.764;23.432;2023-01-25T14:32:52;96408.56;;;1.55;100.00
41686;BME280;27370;42.764;23.432;2023-01-25T14:35:41;96399.22;;;1.82;100.00
41686;BME280;27370;42.764;23.432;2023-01-25T14:40:54;96407.13;;;1.91;100.00
41686;BME280;27370;42.764;23.432;2023-01-25T14:43:20;96402.84;;;1.44;100.00
41686;BME280;27370;42.764;23.432;2023-01-25T14:45:46;96398.31;;;1.24;100.00
41686;BME280;27370;42.764;23.432;2023-01-25T14:48:34;96405.00;;;1.09;100.00
41686;BME280;27370;42.764;23.432;2023-01-25T14:51:15;96391.50;;;0.94;100.00
41686;BME280;27370;42.764;23.432;2023-01-25T14:53:47;96393.22;;;0.89;100.00
41686;BME280;27370;42.764;23.432;2023-01-25T14:58:59;96392.31;;;1.06;100.00